Shijiazhuang Zhengding International

Airport
ICAO code: 
ZBSJ
Summary
ICAO Region: 
APAC
Territory: 
Location: 
Shijiazhuang, Hebei, Hebei
Serving: 
Shijiazhuang
Coordinates: 
Aerial View: 
38° 16' 50.999" N, 114° 41' 48.001" E
Airport WX: 
Sand Storm
Metar
Observation
ZBSJ 022000Z VRB01MPS CAVOK 03/M10 Q1022 NOSIG
Station
ZHENGDING
Date/Time
2021-12-02 20:00:00
Lowest cloud amount
clouds and visibility OK
Temperature
3°C
Dew point
-10°C
Humidity
37%
QNH
1022 hPa
Weather condition
n/a

Description

Shijiazhuang Zhengding International Airport is an airport serving Shijiazhuang, the capital of Hebei Province, China.

Climatology

WiHumid subtropical climate (Köppen climate classification Cfa.) Hot muggy summers with frequent thunderstorms. Winters are mild and precipitation during this season comes from mid-latitude cyclones. This climate type is quite common on the east coasts of continents.

Runways

Designator Length Width Surface Rops
15/33 3400 45 CON Yes/Yes
Airport map: 
Aerial View: 

SKYbrary Partners:

Safety knowledge contributed by: